Time;durP1;ratioP1;P1;durP2;ratioP2;P2;SDS_P1;SDS_P2;PMS_P1;PMS_P2;Temp;Humidity;BMP_temperature;BMP_pressure;BME280_temperature;BME280_humidity;BME280_pressure;Samples;Min_cycle;Max_cycle;Signal;HPM_P1;HPM_P2
2022/01/01 00:00:18;;;;;;;53.45;40.08;;;;;;;11.39;87.78;102266.59;5056007;28;20032;-76
2022/01/01 00:02:44;;;;;;;71.25;47.78;;;;;;;11.39;87.75;102262.25;5038736;28;20028;-72
2022/01/01 00:05:12;;;;;;;70.13;47.03;;;;;;;11.41;87.46;102262.25;5036854;28;20087;-72
2022/01/01 00:07:46;;;;;;;67.38;47.00;;;;;;;11.42;87.70;102269.25;5057110;28;20083;-71
2022/01/01 00:10:12;;;;;;;66.47;46.05;;;;;;;11.43;87.57;102271.91;5068309;28;20094;-72
2022/01/01 00:12:42;;;;;;;62.17;44.40;;;;;;;11.43;87.65;102274.53;5045967;28;20044;-73
2022/01/01 00:15:08;;;;;;;45.95;32.22;;;;;;;11.45;87.65;102279.81;5069823;28;20032;-72
2022/01/01 00:17:33;;;;;;;44.85;28.30;;;;;;;11.46;87.72;102270.16;5067376;28;20028;-73
2022/01/01 00:19:59;;;;;;;43.63;24.42;;;;;;;11.49;87.59;102271.06;5037457;28;20024;-73
2022/01/01 00:22:24;;;;;;;39.72;23.00;;;;;;;11.50;87.85;102279.81;5045439;28;20443;-76
2022/01/01 00:24:50;;;;;;;35.63;22.92;;;;;;;11.49;87.66;102270.19;5048170;28;20032;-76
2022/01/01 00:27:15;;;;;;;38.25;21.08;;;;;;;11.50;87.30;102275.44;5046679;28;20059;-73
2022/01/01 00:29:41;;;;;;;35.60;23.13;;;;;;;11.51;87.61;102282.47;5067285;28;20027;-71
2022/01/01 00:32:07;;;;;;;37.42;22.00;;;;;;;11.53;87.50;102285.09;5036271;28;20036;-73
2022/01/01 00:34:34;;;;;;;38.78;21.13;;;;;;;11.54;87.36;102281.63;5049992;28;20060;-72
2022/01/01 00:37:00;;;;;;;39.70;22.88;;;;;;;11.53;87.19;102283.34;5070060;28;20031;-72
2022/01/01 00:39:25;;;;;;;43.80;24.67;;;;;;;11.56;87.31;102282.50;5076777;28;20361;-75
2022/01/01 00:41:51;;;;;;;40.22;23.10;;;;;;;11.55;87.42;102273.75;5052757;28;20025;-75
2022/01/01 00:44:16;;;;;;;39.85;21.92;;;;;;;11.57;87.04;102279.88;5042453;28;20037;-73
2022/01/01 00:46:42;;;;;;;35.33;23.27;;;;;;;11.58;87.29;102278.16;5038835;28;20032;-73
2022/01/01 00:49:07;;;;;;;37.15;23.27;;;;;;;11.59;87.30;102272.91;5052502;28;20074;-73
2022/01/01 00:51:33;;;;;;;34.65;23.58;;;;;;;11.58;87.37;102267.66;5065465;28;20047;-74
2022/01/01 00:53:58;;;;;;;38.42;21.30;;;;;;;11.58;86.98;102270.28;5043326;28;20094;-71
2022/01/01 00:56:24;;;;;;;35.83;19.23;;;;;;;11.57;86.83;102264.13;5064584;28;20074;-73
2022/01/01 00:58:51;;;;;;;36.28;19.95;;;;;;;11.57;86.86;102269.38;5046248;28;20543;-71
2022/01/01 01:01:17;;;;;;;40.83;19.50;;;;;;;11.56;87.17;102266.72;5049714;28;20066;-73
2022/01/01 01:03:42;;;;;;;35.53;17.35;;;;;;;11.56;87.03;102277.25;5062711;28;20037;-72
2022/01/01 01:06:10;;;;;;;37.40;17.42;;;;;;;11.55;87.45;102275.47;5065831;28;20051;-74
2022/01/01 01:08:36;;;;;;;35.28;16.73;;;;;;;11.55;87.17;102288.59;5042732;28;20195;-73
2022/01/01 01:11:04;;;;;;;27.58;16.65;;;;;;;11.54;87.36;102282.47;5042081;28;20552;-72
2022/01/01 01:13:31;;;;;;;35.78;17.35;;;;;;;11.55;87.30;102281.63;5055564;28;20502;-71
2022/01/01 01:15:58;;;;;;;34.90;16.92;;;;;;;11.55;87.28;102280.72;5053405;28;20090;-71
2022/01/01 01:18:24;;;;;;;34.05;17.25;;;;;;;11.55;86.89;102285.97;5076569;28;20032;-72
2022/01/01 01:20:49;;;;;;;37.85;16.90;;;;;;;11.56;87.06;102277.25;5045620;28;20027;-71
2022/01/01 01:23:14;;;;;;;33.78;16.80;;;;;;;11.56;87.20;102288.59;5075327;28;20025;-71
2022/01/01 01:25:41;;;;;;;33.67;15.80;;;;;;;11.54;87.12;102284.25;5053325;28;20040;-71
2022/01/01 01:28:13;;;;;;;35.08;15.73;;;;;;;11.53;86.84;102285.97;5065658;28;20039;-73
2022/01/01 01:30:39;;;;;;;31.70;15.57;;;;;;;11.52;87.14;102292.09;5052682;28;20075;-72
2022/01/01 01:33:06;;;;;;;29.15;15.73;;;;;;;11.52;87.22;102296.47;5068620;28;20419;-72
2022/01/01 01:35:33;;;;;;;33.33;15.93;;;;;;;11.52;86.98;102299.09;5069361;28;20051;-72
2022/01/01 01:37:58;;;;;;;35.08;15.27;;;;;;;11.51;86.90;102299.97;5049774;28;20056;-71
2022/01/01 01:40:24;;;;;;;30.83;15.70;;;;;;;11.51;87.06;102299.97;5070565;28;20036;-72
2022/01/01 01:42:53;;;;;;;32.13;15.00;;;;;;;11.50;87.24;102298.19;5050773;28;20068;-71
2022/01/01 01:45:21;;;;;;;28.92;14.70;;;;;;;11.48;87.39;102292.94;5068625;28;20039;-72
2022/01/01 01:47:49;;;;;;;33.28;15.85;;;;;;;11.47;87.29;102287.69;5052815;28;20041;-72
2022/01/01 01:50:17;;;;;;;27.02;14.27;;;;;;;11.46;87.18;102293.78;5066903;28;20427;-72
2022/01/01 01:52:53;;;;;;;28.75;14.40;;;;;;;11.48;87.37;102299.91;5055620;28;20048;-71
2022/01/01 01:55:19;;;;;;;35.40;15.13;;;;;;;11.46;87.11;102299.03;5072705;28;20060;-71
2022/01/01 01:57:45;;;;;;;30.88;13.70;;;;;;;11.47;87.56;102306.06;5060980;28;20025;-72
2022/01/01 02:00:43;;;;;;;35.55;16.00;;;;;;;11.44;87.29;102305.16;5066328;28;20739;-73
2022/01/01 02:03:00;;;;;;;31.30;14.82;;;;;;;11.45;87.62;102313.94;5070197;28;20086;-71
2022/01/01 02:05:26;;;;;;;38.05;14.00;;;;;;;11.46;87.33;102322.66;5067327;28;20024;-75
2022/01/01 02:07:52;;;;;;;31.60;15.05;;;;;;;11.47;87.33;102327.06;5060110;28;20040;-75
2022/01/01 02:10:18;;;;;;;27.02;13.80;;;;;;;11.44;87.62;102315.66;5053017;28;20055;-75
2022/01/01 02:12:54;;;;;;;28.85;14.52;;;;;;;11.46;87.66;102309.53;5072864;28;20032;-73
2022/01/01 02:18:24;;;;;;;36.45;13.02;;;;;;;11.45;87.84;102306.06;5048027;28;20032;-71
2022/01/01 02:20:50;;;;;;;27.10;12.88;;;;;;;11.46;87.78;102310.41;5041790;28;20028;-72
2022/01/01 02:23:17;;;;;;;28.67;12.68;;;;;;;11.46;87.84;102306.91;5052053;28;20492;-71
2022/01/01 02:25:43;;;;;;;31.48;13.45;;;;;;;11.44;88.04;102305.16;5051503;28;20025;-71
2022/01/01 02:28:16;;;;;;;26.92;12.90;;;;;;;11.45;87.87;102303.44;5055701;28;20127;-71
2022/01/01 02:30:45;;;;;;;26.83;12.50;;;;;;;11.47;88.07;102295.56;5071090;28;20373;-71
2022/01/01 02:33:11;;;;;;;26.50;13.00;;;;;;;11.47;87.99;102288.56;5067813;28;20546;-71
2022/01/01 02:35:36;;;;;;;25.52;13.38;;;;;;;11.46;87.77;102296.41;5068470;28;20036;-70
2022/01/01 02:38:02;;;;;;;32.97;14.32;;;;;;;11.46;88.16;102299.91;5050718;28;20408;-72
2022/01/01 02:40:28;;;;;;;33.38;14.20;;;;;;;11.46;88.08;102294.66;5054494;28;20090;-72
2022/01/01 02:42:54;;;;;;;28.05;14.82;;;;;;;11.46;87.87;102305.16;5061725;28;20045;-70
2022/01/01 02:45:20;;;;;;;35.85;14.77;;;;;;;11.47;88.05;102306.06;5047168;28;20479;-71
2022/01/01 02:47:47;;;;;;;22.98;12.35;;;;;;;11.47;88.41;102304.31;5072438;28;20041;-71
2022/01/01 02:50:12;;;;;;;35.53;15.85;;;;;;;11.47;87.89;102299.06;5046744;28;20029;-70
2022/01/01 02:52:38;;;;;;;27.95;13.98;;;;;;;11.48;87.92;102305.16;5058440;28;20040;-70
2022/01/01 02:55:05;;;;;;;38.55;16.95;;;;;;;11.47;87.92;102298.19;5036695;28;20074;-71
2022/01/01 02:57:31;;;;;;;17.50;13.10;;;;;;;11.47;88.02;102300.81;5063191;28;20051;-71
2022/01/01 02:59:56;;;;;;;24.70;14.57;;;;;;;11.46;87.84;102291.16;5066898;28;20473;-71
2022/01/01 03:02:22;;;;;;;27.92;15.38;;;;;;;11.46;87.90;102278.91;5049316;28;20495;-71
2022/01/01 03:04:48;;;;;;;23.95;15.25;;;;;;;11.47;87.63;102277.19;5051607;28;20021;-70
2022/01/01 03:07:14;;;;;;;28.67;14.02;;;;;;;11.47;87.75;102278.06;5073815;28;20119;-72
2022/01/01 03:09:40;;;;;;;25.95;14.70;;;;;;;11.48;87.69;102274.56;5071701;28;20029;-75
2022/01/01 03:12:09;;;;;;;24.73;15.57;;;;;;;11.49;87.90;102275.44;5028953;28;20087;-75
2022/01/01 03:14:35;;;;;;;28.42;13.90;;;;;;;11.48;87.58;102271.94;5064812;28;20028;-74
2022/01/01 03:17:01;;;;;;;23.55;14.82;;;;;;;11.48;87.75;102268.41;5049302;28;20131;-74
2022/01/01 03:19:27;;;;;;;23.35;14.15;;;;;;;11.47;87.46;102275.44;5062967;28;20464;-74
2022/01/01 03:21:52;;;;;;;28.17;16.17;;;;;;;11.50;87.33;102282.44;5056812;28;20028;-74
2022/01/01 03:24:18;;;;;;;20.00;14.13;;;;;;;11.49;87.75;102280.69;5067603;28;20043;-74
2022/01/01 03:26:44;;;;;;;30.95;15.05;;;;;;;11.49;87.34;102276.31;5066337;28;20063;-75
2022/01/01 03:29:10;;;;;;;23.23;12.88;;;;;;;11.49;87.31;102276.31;5071850;28;20207;-75
2022/01/01 03:31:36;;;;;;;27.13;14.73;;;;;;;11.50;87.37;102279.81;5074686;28;20032;-75
2022/01/01 03:34:02;;;;;;;24.73;14.07;;;;;;;11.49;87.31;102272.81;5072402;28;20475;-75
2022/01/01 03:36:28;;;;;;;24.88;13.27;;;;;;;11.48;87.59;102273.66;5072071;28;20032;-74
2022/01/01 03:38:55;;;;;;;24.88;12.90;;;;;;;11.49;87.48;102267.56;5049285;28;20098;-75
2022/01/01 03:41:20;;;;;;;24.13;13.50;;;;;;;11.48;87.34;102264.06;5056227;28;20119;-75
2022/01/01 03:43:46;;;;;;;27.75;13.98;;;;;;;11.49;87.37;102264.94;5047770;28;20025;-71
2022/01/01 03:46:13;;;;;;;23.55;12.30;;;;;;;11.49;87.28;102270.19;5067187;28;20074;-71
2022/01/01 03:48:39;;;;;;;28.73;15.65;;;;;;;11.49;87.53;102264.94;5044437;28;20067;-71
2022/01/01 03:51:05;;;;;;;26.80;14.10;;;;;;;11.51;87.27;102263.22;5059008;28;20028;-71
2022/01/01 03:53:30;;;;;;;21.60;12.55;;;;;;;11.50;86.91;102262.31;5056728;28;20044;-71
2022/01/01 03:55:56;;;;;;;26.95;12.88;;;;;;;11.50;86.72;102250.94;5037045;28;20045;-70
2022/01/01 03:58:21;;;;;;;22.10;12.68;;;;;;;11.48;87.19;102257.91;5051021;28;20025;-71
2022/01/01 04:00:47;;;;;;;25.80;12.50;;;;;;;11.47;87.01;102264.06;5051175;28;20072;-70
2022/01/01 04:03:16;;;;;;;23.83;12.63;;;;;;;11.44;86.79;102255.28;5082220;28;20422;-71
2022/01/01 04:05:43;;;;;;;20.00;11.63;;;;;;;11.43;87.29;102260.53;5078207;28;20107;-71
2022/01/01 04:08:11;;;;;;;27.52;11.43;;;;;;;11.43;86.74;102258.78;5051181;28;20043;-71
2022/01/01 04:10:37;;;;;;;29.35;12.23;;;;;;;11.42;86.89;102257.03;5067887;28;20529;-70
2022/01/01 04:13:05;;;;;;;21.15;11.48;;;;;;;11.44;86.49;102257.03;5076800;28;20063;-71
2022/01/01 04:15:32;;;;;;;21.85;12.45;;;;;;;11.43;87.10;102265.78;5079325;28;20032;-70
2022/01/01 04:18:05;;;;;;;18.05;10.98;;;;;;;11.42;86.88;102261.38;5069276;28;20341;-72
2022/01/01 04:20:31;;;;;;;23.67;11.75;;;;;;;11.42;86.49;102259.66;5053393;28;20032;-71
2022/01/01 04:22:57;;;;;;;22.15;11.05;;;;;;;11.42;87.04;102266.63;5056030;28;20424;-71
2022/01/01 04:25:24;;;;;;;22.15;11.50;;;;;;;11.42;86.75;102269.25;5046667;28;20108;-71
2022/01/01 04:27:51;;;;;;;18.88;11.52;;;;;;;11.40;86.58;102261.38;5062546;28;20047;-70
2022/01/01 04:30:17;;;;;;;21.02;11.60;;;;;;;11.39;86.54;102257.00;5076028;28;20082;-70
2022/01/01 04:32:43;;;;;;;26.33;11.40;;;;;;;11.40;86.45;102260.50;5069027;28;20028;-71
2022/01/01 04:35:08;;;;;;;23.90;11.90;;;;;;;11.38;86.36;102255.25;5072952;28;20032;-71
2022/01/01 04:37:34;;;;;;;21.83;10.45;;;;;;;11.39;86.33;102256.09;5054877;28;20102;-71
2022/01/01 04:40:00;;;;;;;19.50;11.45;;;;;;;11.37;86.94;102266.59;5045115;28;20041;-70
2022/01/01 04:42:26;;;;;;;17.73;9.70;;;;;;;11.36;86.63;102264.81;5055498;28;20162;-70
2022/01/01 04:44:52;;;;;;;21.13;9.50;;;;;;;11.36;86.43;102263.97;5057325;28;20087;-70
2022/01/01 04:47:18;;;;;;;19.02;10.15;;;;;;;11.36;86.06;102272.69;5072434;28;20127;-70
2022/01/01 04:49:43;;;;;;;20.15;9.85;;;;;;;11.35;86.40;102268.34;5075105;28;20165;-71
2022/01/01 04:52:08;;;;;;;22.33;10.32;;;;;;;11.36;86.63;102267.44;5050850;28;20628;-71
2022/01/01 04:54:38;;;;;;;19.88;9.80;;;;;;;11.36;86.27;102270.06;5053175;28;20028;-71
2022/01/01 04:57:04;;;;;;;19.08;10.40;;;;;;;11.36;86.05;102272.69;5046706;28;20025;-71
2022/01/01 04:59:29;;;;;;;16.27;9.40;;;;;;;11.38;85.91;102265.75;5058234;28;20032;-71
2022/01/01 05:01:55;;;;;;;15.60;9.05;;;;;;;11.38;86.31;102272.75;5064334;28;20036;-72
2022/01/01 05:04:20;;;;;;;20.95;9.52;;;;;;;11.38;86.27;102278.88;5047833;28;20036;-71
2022/01/01 05:06:49;;;;;;;16.48;10.27;;;;;;;11.39;85.83;102272.75;5055006;28;20031;-72
2022/01/01 05:09:15;;;;;;;18.98;9.70;;;;;;;11.39;85.79;102277.09;5052539;28;20048;-71
2022/01/01 05:11:40;;;;;;;18.58;9.18;;;;;;;11.37;85.79;102279.72;5069506;28;20036;-72
2022/01/01 05:14:06;;;;;;;22.52;8.93;;;;;;;11.39;85.73;102280.63;5054964;28;20025;-71
2022/01/01 05:16:31;;;;;;;16.55;9.02;;;;;;;11.38;85.72;102275.38;5065402;28;20089;-73
2022/01/01 05:18:57;;;;;;;18.42;8.95;;;;;;;11.37;85.91;102279.72;5039910;28;20046;-71
2022/01/01 05:21:22;;;;;;;17.92;9.02;;;;;;;11.38;85.54;102286.72;5066511;28;20032;-70
2022/01/01 05:23:48;;;;;;;14.95;9.10;;;;;;;11.38;85.42;102286.72;5080000;28;20083;-70
2022/01/01 05:26:13;;;;;;;15.88;8.52;;;;;;;11.40;85.81;102289.38;5056526;28;20127;-71
2022/01/01 05:28:39;;;;;;;23.77;9.50;;;;;;;11.39;85.76;102288.50;5050430;28;20039;-71
2022/01/01 05:31:04;;;;;;;15.88;7.35;;;;;;;11.39;85.75;102282.34;5058257;28;20106;-70
2022/01/01 05:33:30;;;;;;;20.52;8.98;;;;;;;11.39;85.51;102280.63;5052497;28;20111;-71
2022/01/01 05:35:55;;;;;;;16.00;8.45;;;;;;;11.38;85.61;102286.72;5074182;28;20035;-73
2022/01/01 05:38:21;;;;;;;17.10;8.55;;;;;;;11.39;85.33;102288.50;5061979;28;20039;-71
2022/01/01 05:40:46;;;;;;;17.08;9.02;;;;;;;11.38;85.33;102275.38;5074099;28;20032;-71
2022/01/01 05:43:15;;;;;;;14.98;8.63;;;;;;;11.38;85.18;102278.00;5044766;28;20488;-71
2022/01/01 05:45:43;;;;;;;15.70;8.15;;;;;;;11.38;85.19;102275.38;5057757;28;20132;-71
2022/01/01 05:48:10;;;;;;;15.40;8.50;;;;;;;11.37;85.47;102278.84;5046340;28;20028;-70
2022/01/01 05:50:36;;;;;;;13.40;8.50;;;;;;;11.35;85.67;102281.47;5046137;28;20392;-71
2022/01/01 05:53:01;;;;;;;16.10;8.00;;;;;;;11.35;85.16;102291.06;5070115;28;20048;-71
2022/01/01 05:55:27;;;;;;;19.75;8.73;;;;;;;11.34;85.22;102291.97;5058683;28;20119;-72
2022/01/01 05:57:53;;;;;;;20.55;8.90;;;;;;;11.33;85.49;102285.81;5075628;28;20558;-71
2022/01/01 06:00:18;;;;;;;12.60;7.80;;;;;;;11.32;85.46;102284.06;5068326;28;20093;-71
2022/01/01 06:02:44;;;;;;;19.95;8.07;;;;;;;11.33;85.54;102283.19;5073567;28;20024;-72
2022/01/01 06:05:10;;;;;;;21.02;9.05;;;;;;;11.32;84.99;102276.19;5056255;28;20089;-71
2022/01/01 06:07:36;;;;;;;16.67;8.73;;;;;;;11.31;85.23;102276.19;5076999;28;20480;-70
2022/01/01 06:10:03;;;;;;;14.57;8.55;;;;;;;11.31;85.32;102271.81;5053780;28;20127;-70
2022/01/01 06:12:29;;;;;;;23.55;8.07;;;;;;;11.32;84.91;102273.56;5051716;28;20048;-70
2022/01/01 06:14:54;;;;;;;19.40;8.38;;;;;;;11.30;84.86;102274.41;5041197;28;20033;-70
2022/01/01 06:17:21;;;;;;;13.90;7.10;;;;;;;11.27;84.73;102264.78;5067807;28;20028;-74
2022/01/01 06:19:46;;;;;;;16.75;7.25;;;;;;;11.24;84.80;102257.75;5073883;28;20099;-74
2022/01/01 06:22:13;;;;;;;13.05;6.88;;;;;;;11.20;85.03;102257.72;5049359;28;20024;-74
2022/01/01 06:24:38;;;;;;;14.82;7.53;;;;;;;11.17;84.71;102257.69;5055770;28;20551;-73
2022/01/01 06:27:04;;;;;;;15.02;8.18;;;;;;;11.16;84.95;102255.94;5054586;28;20127;-74
2022/01/01 06:29:30;;;;;;;15.88;6.53;;;;;;;11.17;84.84;102268.19;5080315;28;20043;-73
2022/01/01 06:31:55;;;;;;;15.95;7.25;;;;;;;11.17;84.65;102265.56;5048100;28;20388;-74
2022/01/01 06:34:20;;;;;;;12.45;7.68;;;;;;;11.17;84.51;102271.69;5052803;28;20085;-74
2022/01/01 06:36:46;;;;;;;10.93;6.90;;;;;;;11.17;84.65;102274.31;5071930;28;20106;-74
2022/01/01 06:39:11;;;;;;;17.58;6.82;;;;;;;11.15;84.45;102273.44;5056362;28;20028;-74
2022/01/01 06:41:37;;;;;;;13.18;5.93;;;;;;;11.16;84.57;102276.91;5047724;28;20036;-74
2022/01/01 06:44:03;;;;;;;14.30;5.75;;;;;;;11.12;84.28;102285.63;5067416;28;20392;-75
2022/01/01 06:46:31;;;;;;;14.75;6.72;;;;;;;11.05;84.08;102290.81;5058475;28;20483;-75
2022/01/01 06:48:56;;;;;;;20.77;6.97;;;;;;;11.00;84.39;102297.75;5070833;28;20035;-75
2022/01/01 06:51:24;;;;;;;16.42;6.32;;;;;;;10.96;84.25;102296.00;5061730;28;20032;-75
2022/01/01 06:53:50;;;;;;;15.25;5.72;;;;;;;10.88;83.99;102282.78;5043047;28;20040;-74
2022/01/01 06:56:16;;;;;;;15.75;7.28;;;;;;;10.84;84.33;102293.22;5043854;28;20052;-74
2022/01/01 06:58:41;;;;;;;12.30;6.07;;;;;;;10.81;84.63;102280.09;5041958;28;20067;-75
2022/01/01 07:01:07;;;;;;;17.75;6.88;;;;;;;10.80;84.42;102294.06;5050833;28;20480;-75
2022/01/01 07:03:33;;;;;;;12.93;6.18;;;;;;;10.76;84.96;102287.91;5057522;28;20024;-74
2022/01/01 07:05:58;;;;;;;18.55;7.05;;;;;;;10.78;84.76;102295.81;5067154;28;20033;-74
2022/01/01 07:08:23;;;;;;;10.82;6.63;;;;;;;10.79;84.65;102292.28;5076779;28;20422;-74
2022/01/01 07:10:49;;;;;;;16.60;6.95;;;;;;;10.81;84.72;102298.44;5063918;28;20036;-74
2022/01/01 07:13:16;;;;;;;17.25;7.00;;;;;;;10.83;84.75;102299.34;5052665;28;20419;-75
2022/01/01 07:15:42;;;;;;;16.63;7.22;;;;;;;10.84;85.11;102304.59;5047945;28;20020;-75
2022/01/01 07:18:08;;;;;;;12.23;6.35;;;;;;;10.86;84.82;102304.59;5050457;28;20025;-75
2022/01/01 07:20:33;;;;;;;16.92;6.40;;;;;;;10.87;84.67;102311.63;5035790;28;20044;-75
2022/01/01 07:22:59;;;;;;;11.70;5.93;;;;;;;10.88;84.57;102316.88;5063668;28;20101;-74
2022/01/01 07:25:25;;;;;;;14.45;6.43;;;;;;;10.89;84.46;102315.16;5039798;28;20549;-74
2022/01/01 07:27:51;;;;;;;17.85;6.57;;;;;;;10.90;84.48;102319.50;5064542;28;20029;-74
2022/01/01 07:30:17;;;;;;;13.02;6.63;;;;;;;10.91;84.51;102310.78;5044286;28;20124;-75
2022/01/01 07:32:46;;;;;;;13.65;6.18;;;;;;;10.91;84.25;102309.03;5064056;28;20123;-75
2022/01/01 07:35:14;;;;;;;9.07;5.35;;;;;;;10.92;84.01;102309.94;5075210;28;20029;-75
2022/01/01 07:37:40;;;;;;;10.27;6.00;;;;;;;10.93;84.15;102311.66;5068178;28;20028;-74
2022/01/01 07:40:08;;;;;;;19.38;6.97;;;;;;;10.91;84.18;102313.41;5063886;28;20021;-74
2022/01/01 07:42:34;;;;;;;11.48;5.82;;;;;;;10.91;83.91;102319.53;5070786;28;20024;-74
2022/01/01 07:44:59;;;;;;;13.38;6.53;;;;;;;10.90;84.21;102316.88;5062097;28;20032;-74
2022/01/01 07:47:25;;;;;;;8.75;5.40;;;;;;;10.92;83.99;102317.81;5062491;28;20098;-74
2022/01/01 07:49:51;;;;;;;15.70;7.13;;;;;;;10.93;83.93;102324.78;5072831;28;20324;-74
2022/01/01 07:52:17;;;;;;;11.68;5.47;;;;;;;10.93;83.91;102319.53;5078303;28;20036;-75
2022/01/01 07:54:45;;;;;;;11.80;6.20;;;;;;;10.96;83.65;102327.47;5042521;28;20055;-75
2022/01/01 07:57:10;;;;;;;16.27;6.85;;;;;;;10.95;83.77;102325.69;5081632;28;20036;-74
2022/01/01 07:59:36;;;;;;;16.55;6.47;;;;;;;10.98;83.99;102324.84;5053699;28;20035;-74
2022/01/01 08:02:02;;;;;;;20.55;6.72;;;;;;;10.97;83.92;102329.19;5056842;28;20052;-74
2022/01/01 08:04:27;;;;;;;12.68;6.95;;;;;;;11.00;83.75;102336.22;5053520;28;20032;-76
2022/01/01 08:06:55;;;;;;;9.50;5.80;;;;;;;11.00;83.92;102341.47;5071631;28;20028;-75
2022/01/01 08:09:20;;;;;;;17.75;7.55;;;;;;;11.01;83.40;102340.63;5049472;28;20467;-75
2022/01/01 08:11:46;;;;;;;11.18;6.20;;;;;;;11.01;83.40;102344.13;5044311;28;20484;-74
2022/01/01 08:14:11;;;;;;;14.32;6.72;;;;;;;11.02;83.60;102342.34;5071057;28;20439;-74
2022/01/01 08:17:03;;;;;;;14.40;6.80;;;;;;;11.02;83.66;102342.34;5047169;28;20473;-74
2022/01/01 08:19:29;;;;;;;16.58;6.97;;;;;;;11.01;83.63;102343.25;5068593;28;20500;-74
2022/01/01 08:21:56;;;;;;;16.50;7.60;;;;;;;11.01;83.25;102338.00;5051416;28;20029;-74
2022/01/01 08:24:22;;;;;;;10.88;6.07;;;;;;;11.02;83.40;102331.88;5072830;28;20430;-75
2022/01/01 08:26:49;;;;;;;15.50;6.25;;;;;;;11.01;83.58;102333.63;5078888;28;20112;-75
2022/01/01 08:29:14;;;;;;;15.80;6.32;;;;;;;11.01;83.87;102331.00;5048461;28;20071;-74
2022/01/01 08:31:40;;;;;;;10.30;6.10;;;;;;;11.03;83.41;102329.28;5059741;28;20036;-75
2022/01/01 08:34:05;;;;;;;10.18;5.80;;;;;;;11.05;83.56;102327.53;5048123;28;20031;-75
2022/01/01 08:36:31;;;;;;;16.05;5.93;;;;;;;11.08;83.02;102329.31;5041310;28;20056;-74
2022/01/01 08:39:00;;;;;;;21.85;6.85;;;;;;;11.08;83.34;102327.56;5062434;28;20603;-75
2022/01/01 08:41:26;;;;;;;16.58;6.53;;;;;;;11.11;82.89;102331.09;5077979;28;20062;-74
2022/01/01 08:43:52;;;;;;;12.50;5.45;;;;;;;11.14;83.29;102325.88;5050209;28;20028;-74
2022/01/01 08:46:18;;;;;;;14.18;6.13;;;;;;;11.15;82.73;102325.91;5092283;28;20097;-73
2022/01/01 08:48:44;;;;;;;11.48;6.22;;;;;;;11.17;82.84;102331.16;5053710;28;20037;-72
2022/01/01 08:51:19;;;;;;;15.05;5.95;;;;;;;11.18;82.45;102325.94;5044305;28;20565;-74
2022/01/01 08:53:46;;;;;;;14.88;5.55;;;;;;;11.19;82.78;102332.03;5065113;28;20494;-74
2022/01/01 08:56:12;;;;;;;12.45;6.32;;;;;;;11.20;83.23;102331.19;5074355;28;20044;-74
2022/01/01 08:58:39;;;;;;;10.43;7.28;;;;;;;11.22;83.13;102332.06;5073303;28;20016;-74
2022/01/01 09:01:06;;;;;;;15.57;6.03;;;;;;;11.23;82.40;102333.84;5079821;28;20032;-74
2022/01/01 09:03:34;;;;;;;8.55;6.38;;;;;;;11.25;82.33;102340.00;5076271;28;20506;-74
2022/01/01 09:06:00;;;;;;;12.82;6.15;;;;;;;11.24;82.34;102330.34;5082364;28;20124;-72
2022/01/01 09:08:26;;;;;;;13.40;6.55;;;;;;;11.24;82.85;102323.34;5048648;28;20027;-74
2022/01/01 09:10:51;;;;;;;16.73;6.93;;;;;;;11.27;82.68;102326.00;5061320;28;20456;-74
2022/01/01 09:13:17;;;;;;;8.48;5.35;;;;;;;11.31;82.27;102318.19;5060075;28;20032;-74
2022/01/01 09:15:43;;;;;;;13.80;6.40;;;;;;;11.31;82.44;102319.03;5072651;28;20126;-75
2022/01/01 09:18:09;;;;;;;12.90;5.85;;;;;;;11.33;82.26;102322.53;5068656;28;20024;-75
2022/01/01 09:20:34;;;;;;;14.10;6.32;;;;;;;11.37;81.75;102321.72;5055201;28;20442;-75
2022/01/01 09:23:00;;;;;;;12.65;5.97;;;;;;;11.37;81.99;102319.09;5042823;28;20048;-75
2022/01/01 09:25:25;;;;;;;14.10;6.10;;;;;;;11.41;82.04;102323.50;5076692;28;20032;-75
2022/01/01 09:27:50;;;;;;;12.25;6.10;;;;;;;11.47;81.91;102327.06;5064562;28;20415;-74
2022/01/01 09:30:16;;;;;;;12.75;6.43;;;;;;;11.50;81.86;102325.31;5052290;28;20035;-75
2022/01/01 09:32:41;;;;;;;16.33;6.85;;;;;;;11.57;81.78;102321.00;5059354;28;20037;-75
2022/01/01 09:35:07;;;;;;;13.20;6.18;;;;;;;11.63;81.41;102326.31;5065336;28;20114;-75
2022/01/01 09:37:33;;;;;;;12.75;7.18;;;;;;;11.66;81.37;102320.19;5045772;28;20074;-75
2022/01/01 09:40:00;;;;;;;8.80;5.75;;;;;;;11.76;81.15;102322.88;5048356;28;20028;-75
2022/01/01 09:42:25;;;;;;;9.32;6.38;;;;;;;11.81;80.86;102308.91;5074821;28;20073;-75
2022/01/01 09:44:56;;;;;;;9.98;6.15;;;;;;;11.87;80.37;102315.09;5065930;28;20086;-74
2022/01/01 09:47:22;;;;;;;16.10;7.07;;;;;;;12.09;80.06;102326.63;5048100;28;20037;-75
2022/01/01 09:49:48;;;;;;;9.07;6.07;;;;;;;12.17;78.97;102316.19;5043594;28;20043;-75
2022/01/01 09:52:14;;;;;;;12.82;5.82;;;;;;;12.15;78.99;102319.66;5047754;28;20037;-75
2022/01/01 09:54:41;;;;;;;11.02;6.10;;;;;;;12.11;78.84;102324.91;5047948;28;20373;-74
2022/01/01 09:57:07;;;;;;;13.38;7.07;;;;;;;12.07;78.87;102320.50;5082124;28;20025;-74
2022/01/01 09:59:35;;;;;;;10.77;5.38;;;;;;;12.10;79.43;102317.03;5081538;28;20031;-74
2022/01/01 10:02:00;;;;;;;11.32;5.57;;;;;;;12.06;78.82;102321.38;5074612;28;20735;-74
2022/01/01 10:04:26;;;;;;;12.60;5.47;;;;;;;12.15;79.34;102317.03;5072481;28;20032;-75
2022/01/01 10:07:07;;;;;;;9.32;5.63;;;;;;;12.42;79.31;102314.53;5040066;28;20032;-75
2022/01/01 10:09:36;;;;;;;15.02;6.57;;;;;;;12.68;77.13;102316.38;5075816;28;20480;-74
2022/01/01 10:12:09;;;;;;;13.27;5.57;;;;;;;13.03;76.44;102307.72;5055153;28;20064;-74
2022/01/01 10:14:36;;;;;;;14.07;5.57;;;;;;;13.44;74.97;102300.72;5072183;28;20063;-75
2022/01/01 10:17:27;;;;;;;13.80;6.00;;;;;;;13.55;73.99;102298.06;5068869;28;20579;-74
2022/01/01 10:19:53;;;;;;;9.68;5.78;;;;;;;13.59;73.06;102291.94;5061134;28;20535;-75
2022/01/01 10:22:20;;;;;;;9.32;5.60;;;;;;;13.67;72.69;102280.50;5053418;28;20064;-74
2022/01/01 10:27:45;;;;;;;9.10;5.28;;;;;;;13.84;72.14;102272.56;5077434;28;20078;-75
2022/01/01 10:30:23;;;;;;;12.10;6.07;;;;;;;13.73;72.73;102273.47;5078352;28;20558;-75
2022/01/01 10:33:10;;;;;;;13.98;5.50;;;;;;;13.70;72.87;102277.00;5077961;28;20071;-77
2022/01/01 10:36:10;;;;;;;8.55;5.90;;;;;;;13.70;73.66;102269.09;5067946;28;20048;-77
2022/01/01 10:38:38;;;;;;;8.90;5.53;;;;;;;13.62;72.90;102262.94;5017469;28;20070;-76
2022/01/01 10:41:09;;;;;;;8.15;5.18;;;;;;;13.53;72.64;102255.94;5054675;28;20044;-74
2022/01/01 10:43:37;;;;;;;8.38;5.32;;;;;;;13.60;72.89;102252.41;5055189;28;20062;-73
2022/01/01 10:46:09;;;;;;;12.70;5.20;;;;;;;14.09;71.99;102253.16;5078333;28;20027;-75
2022/01/01 10:48:42;;;;;;;9.50;4.72;;;;;;;14.59;70.11;102259.09;5081052;28;20119;-74
2022/01/01 10:51:10;;;;;;;9.88;4.70;;;;;;;15.00;68.60;102258.84;5041817;28;20131;-74
2022/01/01 10:53:36;;;;;;;9.38;4.85;;;;;;;15.35;67.68;102254.16;5069144;28;20038;-75
2022/01/01 10:56:14;;;;;;;11.52;5.38;;;;;;;15.92;66.53;102262.41;5073598;28;20083;-75
2022/01/01 10:58:44;;;;;;;6.43;4.15;;;;;;;16.07;64.92;102245.47;5066529;28;20060;-75
2022/01/01 11:01:10;;;;;;;10.25;4.88;;;;;;;16.02;65.10;102236.75;5054597;28;20094;-75
2022/01/01 11:03:41;;;;;;;5.97;4.55;;;;;;;15.46;65.79;102239.09;5067432;28;20032;-74
2022/01/01 11:06:17;;;;;;;6.13;3.83;;;;;;;14.88;67.46;102241.34;5064434;28;20552;-75
2022/01/01 11:08:45;;;;;;;9.88;4.07;;;;;;;14.46;68.84;102240.69;5085533;28;20028;-73
2022/01/01 11:11:13;;;;;;;8.02;4.75;;;;;;;14.18;69.76;102238.19;5071367;28;20477;-75
2022/01/01 11:13:39;;;;;;;6.95;5.03;;;;;;;13.86;71.50;102233.94;5071656;28;20027;-73
2022/01/01 11:16:06;;;;;;;7.75;4.43;;;;;;;13.62;72.08;102232.25;5076152;28;20037;-74
2022/01/01 11:18:36;;;;;;;8.70;4.68;;;;;;;13.66;73.29;102227.81;5045670;28;20033;-74